createdAt,value
2023-02-16T00:00:21.101Z,-0.50
2023-02-16T00:05:49.606Z,-0.38
2023-02-16T00:11:13.770Z,-0.50
2023-02-16T00:16:23.603Z,-0.39
2023-02-16T00:21:31.768Z,-0.52
2023-02-16T00:26:38.176Z,-0.58
2023-02-16T00:31:46.616Z,-0.56
2023-02-16T00:36:54.888Z,-0.56
2023-02-16T00:42:03.553Z,-0.64
2023-02-16T00:47:22.261Z,-0.67
2023-02-16T00:52:37.524Z,-0.60
2023-02-16T00:57:47.361Z,-0.65
2023-02-16T01:02:58.523Z,-0.64
2023-02-16T01:08:30.118Z,-0.59
2023-02-16T01:13:45.522Z,-0.68
2023-02-16T01:18:53.503Z,-0.71
2023-02-16T01:24:01.440Z,-0.70
2023-02-16T01:29:08.602Z,-0.70
2023-02-16T01:34:15.676Z,-0.88
2023-02-16T01:39:25.133Z,-0.99
2023-02-16T01:44:39.706Z,-0.98
2023-02-16T01:49:47.486Z,-1.00
2023-02-16T01:54:58.952Z,-1.14
2023-02-16T02:00:19.712Z,-1.25
2023-02-16T02:05:37.175Z,-1.30
2023-02-16T02:11:04.861Z,-1.44
2023-02-16T02:16:18.083Z,-1.46
2023-02-16T02:22:15.356Z,-1.54
2023-02-16T02:27:26.644Z,-1.40
2023-02-16T02:32:56.698Z,-1.33
2023-02-16T02:38:13.995Z,-1.59
2023-02-16T02:43:26.811Z,-1.69
2023-02-16T02:48:35.313Z,-1.56
2023-02-16T02:53:47.546Z,-1.46
2023-02-16T02:59:19.939Z,-1.37
2023-02-16T03:04:30.266Z,-1.68
2023-02-16T03:09:36.644Z,-1.86
2023-02-16T03:14:49.600Z,-1.80
2023-02-16T03:20:15.471Z,-1.82
2023-02-16T03:25:42.638Z,-1.96
2023-02-16T03:30:54.478Z,-1.99
2023-02-16T03:36:01.569Z,-1.84
2023-02-16T03:41:08.658Z,-1.75
2023-02-16T03:46:17.094Z,-1.72
2023-02-16T03:51:23.847Z,-1.71
2023-02-16T03:56:32.305Z,-1.79
2023-02-16T04:01:40.292Z,-1.79
2023-02-16T04:06:48.544Z,-1.79
2023-02-16T04:12:12.514Z,-1.81
2023-02-16T04:17:20.089Z,-1.83
2023-02-16T04:22:26.471Z,-1.90
2023-02-16T04:27:36.148Z,-1.95
2023-02-16T04:32:44.300Z,-2.15
2023-02-16T04:37:51.158Z,-2.50
2023-02-16T04:42:57.753Z,-2.41
2023-02-16T04:48:06.038Z,-2.23
2023-02-16T04:53:12.355Z,-2.19
2023-02-16T04:58:19.610Z,-2.27
2023-02-16T05:03:27.677Z,-2.21
2023-02-16T05:08:34.355Z,-2.20
2023-02-16T05:13:58.682Z,-2.24
2023-02-16T05:19:06.410Z,-2.24
2023-02-16T05:24:14.038Z,-2.36
2023-02-16T05:29:20.656Z,-2.33
2023-02-16T05:34:28.715Z,-2.37
2023-02-16T05:39:36.411Z,-2.36
2023-02-16T05:44:46.093Z,-2.31
2023-02-16T05:49:54.097Z,-2.30
2023-02-16T05:55:00.670Z,-2.32
2023-02-16T06:00:09.304Z,-2.30
2023-02-16T06:05:17.341Z,-2.39
2023-02-16T06:10:24.087Z,-2.46
2023-02-16T06:15:30.888Z,-2.45
2023-02-16T06:20:41.057Z,-2.44
2023-02-16T06:25:51.794Z,-2.43
2023-02-16T06:30:58.696Z,-2.44
2023-02-16T06:36:08.551Z,-2.33
2023-02-16T06:41:31.807Z,-2.27
2023-02-16T06:46:38.512Z,-2.21
2023-02-16T06:51:50.416Z,-2.11
2023-02-16T06:56:56.678Z,-2.05
2023-02-16T07:02:03.318Z,-1.99
2023-02-16T07:07:11.166Z,-1.88
2023-02-16T07:12:17.904Z,-1.80
2023-02-16T07:17:24.442Z,-1.67
2023-02-16T07:22:32.444Z,-1.57
2023-02-16T07:27:38.918Z,-1.47
2023-02-16T07:32:45.751Z,-1.36
2023-02-16T07:37:53.813Z,-1.23
2023-02-16T07:43:03.022Z,-1.14
2023-02-16T07:48:11.048Z,-1.04
2023-02-16T07:53:19.289Z,-0.91
2023-02-16T07:58:31.728Z,-0.83
2023-02-16T08:03:40.147Z,-0.75
2023-02-16T08:09:08.576Z,-0.60
2023-02-16T08:14:17.810Z,-0.53
2023-02-16T08:19:42.652Z,-0.46
2023-02-16T08:24:51.694Z,-0.38
2023-02-16T08:29:58.307Z,-0.32
2023-02-16T08:35:05.053Z,-0.23
2023-02-16T08:40:14.243Z,-0.16
2023-02-16T08:45:20.497Z,-0.10
2023-02-16T08:50:26.923Z,-0.06
2023-02-16T08:55:36.056Z,0.03
2023-02-16T09:00:43.672Z,0.08
2023-02-16T09:05:51.764Z,0.13
2023-02-16T09:11:09.538Z,0.21
2023-02-16T09:16:18.263Z,0.30
2023-02-16T09:21:27.359Z,0.44
2023-02-16T09:26:39.526Z,0.51
2023-02-16T09:31:47.476Z,0.60
2023-02-16T09:36:54.086Z,0.64
2023-02-16T09:42:19.722Z,0.68
2023-02-16T09:47:31.544Z,0.72
2023-02-16T09:52:42.170Z,0.82
2023-02-16T09:58:08.503Z,0.93
2023-02-16T10:03:47.984Z,1.05
2023-02-16T10:08:58.976Z,1.13
2023-02-16T10:14:16.437Z,1.24
2023-02-16T10:19:30.211Z,1.36
2023-02-16T10:24:50.217Z,1.50
2023-02-16T10:29:59.264Z,1.71
2023-02-16T10:35:15.616Z,1.80
2023-02-16T10:40:31.131Z,1.84
2023-02-16T10:45:51.987Z,1.95
2023-02-16T10:51:05.074Z,2.03
2023-02-16T10:56:41.122Z,2.17
2023-02-16T11:01:52.396Z,2.24
2023-02-16T11:07:07.671Z,2.36
2023-02-16T11:12:28.776Z,2.42
2023-02-16T11:17:53.052Z,2.44
2023-02-16T11:23:24.193Z,2.52
2023-02-16T11:28:37.042Z,2.62
2023-02-16T11:34:06.257Z,2.72
2023-02-16T11:39:22.453Z,2.78
2023-02-16T11:44:34.139Z,2.88
2023-02-16T11:49:44.019Z,3.00
2023-02-16T11:54:54.982Z,3.03
2023-02-16T12:00:03.631Z,3.13
2023-02-16T12:05:46.062Z,3.22
2023-02-16T12:11:14.303Z,3.29
2023-02-16T12:16:33.882Z,3.29
2023-02-16T12:21:46.915Z,3.35
2023-02-16T12:26:58.142Z,3.42
2023-02-16T12:32:30.746Z,3.50
2023-02-16T12:37:46.906Z,3.59
2023-02-16T12:43:12.824Z,3.68
2023-02-16T12:48:42.198Z,3.78
2023-02-16T12:53:59.626Z,3.85
2023-02-16T12:59:24.629Z,3.93
2023-02-16T13:04:42.018Z,3.94
2023-02-16T13:10:00.512Z,3.98
2023-02-16T13:15:16.890Z,4.02
2023-02-16T13:20:24.628Z,4.11
2023-02-16T13:26:11.274Z,4.24
2023-02-16T13:31:40.576Z,4.26
2023-02-16T13:37:18.721Z,4.30
2023-02-16T13:43:15.943Z,4.36
2023-02-16T13:48:29.115Z,4.37
2023-02-16T13:53:39.800Z,4.44
2023-02-16T13:58:48.032Z,4.44
2023-02-16T14:03:54.780Z,4.44
2023-02-16T14:09:49.144Z,4.47
2023-02-16T14:15:04.652Z,4.49
2023-02-16T14:20:31.755Z,4.51
2023-02-16T14:25:41.917Z,4.54
2023-02-16T14:30:55.405Z,4.56
2023-02-16T14:36:16.049Z,4.57
2023-02-16T14:41:33.343Z,4.58
2023-02-16T14:46:53.872Z,4.61
2023-02-16T14:52:38.608Z,4.59
2023-02-16T14:57:52.301Z,4.55
2023-02-16T15:03:03.409Z,4.52
2023-02-16T15:08:18.054Z,4.47
2023-02-16T15:13:30.246Z,4.47
2023-02-16T15:18:43.949Z,4.43
2023-02-16T15:23:54.050Z,4.37
2023-02-16T15:29:03.925Z,4.32
2023-02-16T15:34:17.365Z,4.23
2023-02-16T15:39:42.977Z,4.16
2023-02-16T15:44:58.288Z,4.06
2023-02-16T15:50:15.923Z,3.96
2023-02-16T15:55:24.610Z,3.86
2023-02-16T16:00:32.383Z,3.76
2023-02-16T16:05:42.698Z,3.66
2023-02-16T16:10:50.831Z,3.60
2023-02-16T16:16:05.375Z,3.50
2023-02-16T16:21:25.403Z,3.42
2023-02-16T16:26:36.673Z,3.36
2023-02-16T16:31:45.082Z,3.29
2023-02-16T16:36:59.871Z,3.24
2023-02-16T16:42:24.342Z,3.16
2023-02-16T16:47:39.457Z,3.05
2023-02-16T16:52:51.793Z,2.99
2023-02-16T16:58:08.568Z,2.88
2023-02-16T17:03:21.791Z,2.80
2023-02-16T17:08:33.044Z,2.70
2023-02-16T17:13:43.927Z,2.66
2023-02-16T17:18:53.752Z,2.64
2023-02-16T17:24:03.854Z,2.58
2023-02-16T17:29:15.222Z,2.52
2023-02-16T17:34:30.026Z,2.46
2023-02-16T17:39:42.654Z,2.44
2023-02-16T17:44:51.917Z,2.36
2023-02-16T17:50:02.266Z,2.35
2023-02-16T17:55:15.473Z,2.30
2023-02-16T18:00:25.969Z,2.31
2023-02-16T18:05:35.612Z,2.29
2023-02-16T18:10:51.912Z,2.29
2023-02-16T18:16:08.803Z,2.28
2023-02-16T18:21:20.846Z,2.27
2023-02-16T18:26:40.316Z,2.24
2023-02-16T18:31:52.117Z,2.24
2023-02-16T18:37:01.962Z,2.21
2023-02-16T18:42:17.878Z,2.23
2023-02-16T18:47:27.526Z,2.20
2023-02-16T18:52:43.490Z,2.22
2023-02-16T18:57:56.061Z,2.21
2023-02-16T19:03:06.281Z,2.20
2023-02-16T19:08:23.695Z,2.20
2023-02-16T19:13:35.757Z,2.16
2023-02-16T19:18:48.955Z,2.10
2023-02-16T19:24:01.259Z,2.02
2023-02-16T19:29:19.928Z,1.94
2023-02-16T19:34:30.624Z,1.87
2023-02-16T19:39:42.353Z,1.79
2023-02-16T19:44:55.472Z,1.76
2023-02-16T19:50:04.888Z,1.70
2023-02-16T19:55:23.778Z,1.65
2023-02-16T20:00:36.387Z,1.60
2023-02-16T20:05:47.720Z,1.59
2023-02-16T20:11:02.215Z,1.54
2023-02-16T20:16:16.313Z,1.52
2023-02-16T20:21:28.864Z,1.48
2023-02-16T20:26:42.807Z,1.45
2023-02-16T20:32:01.892Z,1.45
2023-02-16T20:37:11.639Z,1.44
2023-02-16T20:42:21.078Z,1.38
2023-02-16T20:47:31.375Z,1.38
2023-02-16T20:52:42.568Z,1.38
2023-02-16T20:57:52.289Z,1.41
2023-02-16T21:03:04.863Z,1.42
2023-02-16T21:08:18.868Z,1.39
2023-02-16T21:13:27.829Z,1.37
2023-02-16T21:18:40.598Z,1.35
2023-02-16T21:23:51.023Z,1.30
2023-02-16T21:29:00.860Z,1.30
2023-02-16T21:34:11.208Z,1.30
2023-02-16T21:39:19.252Z,1.29
2023-02-16T21:44:28.901Z,1.31
2023-02-16T21:49:37.897Z,1.32
2023-02-16T21:55:02.944Z,1.36
2023-02-16T22:00:16.369Z,1.42
2023-02-16T22:05:24.705Z,1.43
2023-02-16T22:10:33.205Z,1.43
2023-02-16T22:15:40.395Z,1.40
2023-02-16T22:20:48.829Z,1.37
2023-02-16T22:25:55.460Z,1.36
2023-02-16T22:31:09.370Z,1.39
2023-02-16T22:36:17.735Z,1.43
2023-02-16T22:41:25.670Z,1.49
2023-02-16T22:46:33.312Z,1.51
2023-02-16T22:51:44.255Z,1.56
2023-02-16T22:56:51.298Z,1.60
2023-02-16T23:01:57.749Z,1.60
2023-02-16T23:07:05.956Z,1.62
2023-02-16T23:12:13.177Z,1.65
2023-02-16T23:17:20.262Z,1.67
2023-02-16T23:22:28.493Z,1.69
2023-02-16T23:27:35.479Z,1.76
2023-02-16T23:32:44.130Z,1.77
2023-02-16T23:37:52.588Z,1.77
2023-02-16T23:42:59.222Z,1.77
2023-02-16T23:48:06.005Z,1.78
2023-02-16T23:53:13.892Z,1.80
2023-02-16T23:58:20.342Z,1.80
